createdAt,value
2023-01-30T20:59:00.904Z,14.17
2023-01-30T21:01:28.065Z,17.28
2023-01-30T21:03:56.343Z,18.73
2023-01-30T21:06:42.531Z,19.70
2023-01-30T21:09:18.816Z,20.32
2023-01-30T21:11:46.738Z,20.44
2023-01-30T21:14:14.368Z,20.84
2023-01-30T21:16:44.474Z,21.02
2023-01-30T21:19:37.158Z,21.11
2023-01-30T21:22:09.843Z,21.29
2023-01-30T21:24:42.306Z,21.30
2023-01-30T21:27:12.338Z,21.31
2023-01-30T21:29:40.525Z,21.50
2023-01-30T21:32:07.649Z,21.50
2023-01-30T21:34:35.524Z,21.48
2023-01-30T21:37:20.943Z,21.38
2023-01-30T21:40:06.598Z,21.37
2023-01-30T21:42:52.247Z,21.42
2023-01-30T21:45:21.369Z,21.38
2023-01-30T21:47:56.760Z,21.48
2023-01-30T21:50:27.930Z,21.35
2023-01-30T21:53:15.211Z,21.53
2023-01-30T21:58:40.981Z,21.56
2023-01-30T22:01:08.595Z,21.61
2023-01-30T22:03:36.497Z,21.62
2023-01-30T22:06:04.028Z,21.61
2023-01-30T22:08:31.223Z,21.43
2023-01-30T22:11:29.711Z,21.56
2023-01-30T22:14:02.342Z,21.56
2023-01-30T22:16:30.433Z,21.64
2023-01-30T22:19:18.143Z,21.59
2023-01-30T22:21:45.354Z,21.41
2023-01-30T22:24:15.668Z,21.38
2023-01-30T22:26:42.888Z,21.53
2023-01-30T22:29:10.323Z,21.54
2023-01-30T22:31:40.822Z,21.47
2023-01-30T22:34:09.256Z,21.51
2023-01-30T22:36:45.918Z,21.53
2023-01-30T22:39:13.427Z,21.49
2023-01-30T22:41:43.240Z,21.53
2023-01-30T22:44:11.300Z,21.45
2023-01-30T22:46:40.751Z,21.56
2023-01-30T22:49:11.401Z,21.42
2023-01-30T22:51:45.537Z,21.59
2023-01-30T22:54:20.684Z,21.58
2023-01-30T22:57:19.137Z,21.51
2023-01-30T22:59:46.483Z,21.50
2023-01-30T23:02:13.776Z,21.43
2023-01-30T23:04:41.341Z,21.49
2023-01-30T23:07:08.819Z,21.48
2023-01-30T23:09:36.789Z,21.46
2023-01-30T23:12:22.855Z,21.59
2023-01-30T23:14:50.096Z,21.44
2023-01-30T23:17:36.844Z,21.29
2023-01-30T23:20:04.369Z,21.33
2023-01-30T23:22:31.801Z,21.34
2023-01-30T23:24:58.979Z,21.51
2023-01-30T23:27:26.309Z,21.54
2023-01-30T23:29:53.725Z,21.50
2023-01-30T23:32:21.148Z,21.59
2023-01-30T23:34:48.870Z,21.45
2023-01-30T23:37:16.648Z,21.51
2023-01-30T23:39:44.927Z,21.58
2023-01-30T23:42:12.162Z,21.48
2023-01-30T23:44:40.111Z,21.52
2023-01-30T23:47:07.534Z,21.55
2023-01-30T23:49:35.341Z,21.52
2023-01-30T23:52:02.617Z,21.51
2023-01-30T23:54:30.051Z,21.53
2023-01-30T23:56:57.303Z,21.61
2023-01-30T23:59:24.513Z,21.54
